EICK

Cork Airport

Cork, Ireland
METAR EICK 172230Z 32007KT 9999 BKN037 15/11 Q1016 NOSIG
Observed Flight Rules
Jul-17 @ 22:30 UTC (21 minutes ago) Visual Flight Rules
Wind Visibility Clouds
320° at 7 knots 10,000+ meters
  • Broken at 3,700' AGL
Temperatures Readings
Current 15°C / 59°F
Dewpoint 11°C / 52°F
Humidity 77%
Altimeter 30" Hg
Pressure 1016 hPa
Elevation 162
METAR EICK 172230Z 32007KT 9999 BKN037 15/11 Q1016 NOSIG
Observed Flight Rules
Jul-17 @ 22:30 UTC
(21 minutes ago)
VFR
Wind Visibility
320° at 7 knots 10,000+ meters
Clouds
  • Broken at 3,700' AGL
Temperature Dewpoint
15°C / 59°F 11°C / 52°F
Humidity Altimeter Pressure
77% 30" Hg 1016 hPa